Time;durP1;ratioP1;P1;durP2;ratioP2;P2;SDS_P1;SDS_P2;PMS_P1;PMS_P2;Temp;Humidity;BMP_temperature;BMP_pressure;BME280_temperature;BME280_humidity;BME280_pressure;Samples;Min_cycle;Max_cycle;Signal;HPM_P1;HPM_P2
2022/06/26 00:00:56;;;;;;;;;;;23.10;99.90;;;;;;4994888;28;19910;-76
2022/06/26 00:03:21;;;;;;;;;;;23.10;99.90;;;;;;4994834;28;19948;-75
2022/06/26 00:05:47;;;;;;;;;;;23.00;99.90;;;;;;5003058;28;19906;-77
2022/06/26 00:08:13;;;;;;;;;;;23.00;99.90;;;;;;4995917;28;19910;-76
2022/06/26 00:10:38;;;;;;;;;;;22.90;99.90;;;;;;4996072;28;19909;-73
2022/06/26 00:13:04;;;;;;;;;;;22.90;99.90;;;;;;4992209;28;19910;-74
2022/06/26 00:15:29;;;;;;;;;;;22.90;99.90;;;;;;4996655;28;20256;-75
2022/06/26 00:17:55;;;;;;;;;;;22.80;99.90;;;;;;4995961;28;19929;-75
2022/06/26 00:20:21;;;;;;;;;;;22.80;99.90;;;;;;4996600;28;19905;-75
2022/06/26 00:22:46;;;;;;;;;;;22.80;99.90;;;;;;4995655;28;20000;-76
2022/06/26 00:25:12;;;;;;;;;;;22.80;99.90;;;;;;4995436;28;19905;-75
2022/06/26 00:27:37;;;;;;;;;;;22.70;99.90;;;;;;4996387;28;19917;-76
2022/06/26 00:30:03;;;;;;;;;;;22.70;99.90;;;;;;4992573;28;19917;-76
2022/06/26 00:32:29;;;;;;;;;;;22.70;99.90;;;;;;4988479;28;19905;-77
2022/06/26 00:34:54;;;;;;;;;;;22.70;99.90;;;;;;4998839;28;20004;-75
2022/06/26 00:37:20;;;;;;;;;;;22.60;99.90;;;;;;4998584;28;19987;-75
2022/06/26 00:39:45;;;;;;;;;;;22.60;99.90;;;;;;4996879;28;20355;-76
2022/06/26 00:42:11;;;;;;;;;;;22.60;99.90;;;;;;4996690;28;19913;-75
2022/06/26 00:44:36;;;;;;;;;;;22.60;99.90;;;;;;4998408;28;20248;-76
2022/06/26 00:47:02;;;;;;;;;;;22.60;99.90;;;;;;4996094;28;20355;-76
2022/06/26 00:49:28;;;;;;;;;;;22.60;99.90;;;;;;4997491;28;19913;-76
2022/06/26 00:51:55;;;;;;;;;;;22.50;99.90;;;;;;4997244;28;19920;-75
2022/06/26 00:54:21;;;;;;;;;;;22.50;99.90;;;;;;4995987;28;19905;-75
2022/06/26 00:56:47;;;;;;;;;;;22.50;99.90;;;;;;4996469;28;19932;-76
2022/06/26 00:59:13;;;;;;;;;;;22.40;99.90;;;;;;4997344;28;20372;-75
2022/06/26 01:01:39;;;;;;;;;;;22.40;99.90;;;;;;4994850;28;20024;-75
2022/06/26 01:04:04;;;;;;;;;;;22.30;99.90;;;;;;4994799;28;19948;-75
2022/06/26 01:06:31;;;;;;;;;;;22.30;99.90;;;;;;4998476;28;19929;-75
2022/06/26 01:08:56;;;;;;;;;;;22.30;99.90;;;;;;4997482;28;20360;-75
2022/06/26 01:11:24;;;;;;;;;;;22.20;99.90;;;;;;4998571;28;19906;-76
2022/06/26 01:13:51;;;;;;;;;;;22.20;99.90;;;;;;4997966;28;19905;-75
2022/06/26 01:16:18;;;;;;;;;;;22.10;99.90;;;;;;4998738;28;19906;-75
2022/06/26 01:18:45;;;;;;;;;;;22.10;99.90;;;;;;4997160;28;20359;-75
2022/06/26 01:21:10;;;;;;;;;;;22.10;99.90;;;;;;4998053;28;19956;-75
2022/06/26 01:23:36;;;;;;;;;;;22.00;99.90;;;;;;4996892;28;19906;-76
2022/06/26 01:26:02;;;;;;;;;;;22.00;99.90;;;;;;4995606;28;19906;-75
2022/06/26 01:28:27;;;;;;;;;;;21.90;99.90;;;;;;4997852;28;20310;-77
2022/06/26 01:30:53;;;;;;;;;;;21.90;99.90;;;;;;4999674;28;19940;-75
2022/06/26 01:33:18;;;;;;;;;;;21.90;99.90;;;;;;4996347;28;19932;-75
2022/06/26 01:35:44;;;;;;;;;;;21.80;99.90;;;;;;4996614;28;19913;-76
2022/06/26 01:38:13;;;;;;;;;;;21.80;99.90;;;;;;4997772;28;19913;-76
2022/06/26 01:40:39;;;;;;;;;;;21.80;99.90;;;;;;4997291;28;19928;-77
2022/06/26 01:43:07;;;;;;;;;;;21.70;99.90;;;;;;4997369;28;19909;-77
2022/06/26 01:45:33;;;;;;;;;;;21.70;99.90;;;;;;4995643;28;19916;-77
2022/06/26 01:47:58;;;;;;;;;;;21.60;99.90;;;;;;4996731;28;19910;-77
2022/06/26 01:50:24;;;;;;;;;;;21.50;99.90;;;;;;4997239;28;19905;-77
2022/06/26 01:52:50;;;;;;;;;;;21.60;99.90;;;;;;4998374;28;20008;-77
2022/06/26 01:55:15;;;;;;;;;;;21.50;99.90;;;;;;5000968;28;19997;-77
2022/06/26 01:57:41;;;;;;;;;;;21.50;99.90;;;;;;4998296;28;19905;-77
2022/06/26 02:00:06;;;;;;;;;;;21.40;99.90;;;;;;5000335;28;19906;-76
2022/06/26 02:02:33;;;;;;;;;;;21.40;99.90;;;;;;4998381;28;19906;-77
2022/06/26 02:04:59;;;;;;;;;;;21.30;99.90;;;;;;4999739;28;19906;-78
2022/06/26 02:07:25;;;;;;;;;;;21.30;99.90;;;;;;4996420;28;19916;-78
2022/06/26 02:15:19;;;;;;;;;;;21.10;99.90;;;;;;4998020;28;19912;-77
2022/06/26 02:17:44;;;;;;;;;;;21.10;99.90;;;;;;4998503;28;20079;-77
2022/06/26 02:20:10;;;;;;;;;;;21.10;99.90;;;;;;4998441;28;19910;-77
2022/06/26 02:22:36;;;;;;;;;;;21.10;99.90;;;;;;4998803;28;19971;-77
2022/06/26 02:25:01;;;;;;;;;;;21.00;99.90;;;;;;4997441;28;19906;-77
2022/06/26 02:27:27;;;;;;;;;;;20.90;99.90;;;;;;5001456;28;19913;-77
2022/06/26 02:29:52;;;;;;;;;;;20.90;99.90;;;;;;5003588;28;19905;-77
2022/06/26 02:32:18;;;;;;;;;;;20.80;99.90;;;;;;5001183;28;19950;-77
2022/06/26 02:34:43;;;;;;;;;;;20.80;99.90;;;;;;5002949;28;19906;-77
2022/06/26 02:37:09;;;;;;;;;;;20.70;99.90;;;;;;5003470;28;20278;-79
2022/06/26 02:39:34;;;;;;;;;;;20.70;99.90;;;;;;4999393;28;19909;-77
2022/06/26 02:42:00;;;;;;;;;;;20.70;99.90;;;;;;4999551;28;20363;-75
2022/06/26 02:44:25;;;;;;;;;;;20.60;99.90;;;;;;4998421;28;19913;-77
2022/06/26 02:46:51;;;;;;;;;;;20.60;99.90;;;;;;5000463;28;20355;-77
2022/06/26 02:49:16;;;;;;;;;;;20.60;99.90;;;;;;5001685;28;19910;-77
2022/06/26 02:51:42;;;;;;;;;;;20.60;99.90;;;;;;4999866;28;19964;-77
2022/06/26 02:54:08;;;;;;;;;;;20.60;99.90;;;;;;4998304;28;20382;-77
2022/06/26 02:56:34;;;;;;;;;;;20.50;99.90;;;;;;4998806;28;19960;-76
2022/06/26 02:59:00;;;;;;;;;;;20.50;99.90;;;;;;4999033;28;19905;-76
2022/06/26 03:01:25;;;;;;;;;;;20.50;99.90;;;;;;4998516;28;19917;-76
2022/06/26 03:03:51;;;;;;;;;;;20.50;99.90;;;;;;4998822;28;19932;-76
2022/06/26 03:06:16;;;;;;;;;;;20.50;99.90;;;;;;4998730;28;19953;-76
2022/06/26 03:08:42;;;;;;;;;;;20.40;99.90;;;;;;4999145;28;19910;-76
2022/06/26 03:11:07;;;;;;;;;;;20.40;99.90;;;;;;4998820;28;19912;-76
2022/06/26 03:13:33;;;;;;;;;;;20.40;99.90;;;;;;4999006;28;19906;-76
2022/06/26 03:15:58;;;;;;;;;;;20.40;99.90;;;;;;4998315;28;19916;-76
2022/06/26 03:18:24;;;;;;;;;;;20.30;99.90;;;;;;4999382;28;19905;-78
2022/06/26 03:20:49;;;;;;;;;;;20.30;99.90;;;;;;4997757;28;19956;-75
2022/06/26 03:23:15;;;;;;;;;;;20.30;99.90;;;;;;4999051;28;20302;-76
2022/06/26 03:25:40;;;;;;;;;;;20.30;99.90;;;;;;5000467;28;19906;-76
2022/06/26 03:28:06;;;;;;;;;;;20.20;99.90;;;;;;4999274;28;19916;-76
2022/06/26 03:30:31;;;;;;;;;;;20.20;99.90;;;;;;4998856;28;19913;-76
2022/06/26 03:32:57;;;;;;;;;;;20.20;99.90;;;;;;4999402;28;19909;-77
2022/06/26 03:35:23;;;;;;;;;;;20.20;99.90;;;;;;4998039;28;19969;-75
2022/06/26 03:37:48;;;;;;;;;;;20.20;99.90;;;;;;4999011;28;19941;-75
2022/06/26 03:40:14;;;;;;;;;;;20.10;99.90;;;;;;4997903;28;20438;-76
2022/06/26 03:42:39;;;;;;;;;;;20.10;99.90;;;;;;4998773;28;20283;-75
2022/06/26 03:45:05;;;;;;;;;;;20.10;99.90;;;;;;4998603;28;19910;-75
2022/06/26 03:47:31;;;;;;;;;;;20.10;99.90;;;;;;4998382;28;19910;-76
2022/06/26 03:49:56;;;;;;;;;;;20.10;99.90;;;;;;4999156;28;19905;-76
2022/06/26 03:52:23;;;;;;;;;;;20.10;99.90;;;;;;5000214;28;20367;-76
2022/06/26 03:54:48;;;;;;;;;;;20.20;99.90;;;;;;5000056;28;19906;-76
2022/06/26 03:57:14;;;;;;;;;;;20.20;99.90;;;;;;4998812;28;19937;-75
2022/06/26 03:59:39;;;;;;;;;;;20.20;99.90;;;;;;4999234;28;20300;-76
2022/06/26 04:02:05;;;;;;;;;;;20.20;99.90;;;;;;4998958;28;20291;-76
2022/06/26 04:04:30;;;;;;;;;;;20.20;99.90;;;;;;5001606;28;19906;-76
2022/06/26 04:06:56;;;;;;;;;;;20.20;99.90;;;;;;5000868;28;19959;-76
2022/06/26 04:09:21;;;;;;;;;;;20.20;99.90;;;;;;5001781;28;19949;-75
2022/06/26 04:11:47;;;;;;;;;;;20.20;99.90;;;;;;5000077;28;19929;-75
2022/06/26 04:14:12;;;;;;;;;;;20.30;99.90;;;;;;5000247;28;19913;-75
2022/06/26 04:16:38;;;;;;;;;;;20.30;99.90;;;;;;5002898;28;19905;-75
2022/06/26 04:19:03;;;;;;;;;;;20.30;99.90;;;;;;5003011;28;19912;-76
2022/06/26 04:21:29;;;;;;;;;;;20.30;99.90;;;;;;5001595;28;20028;-74
2022/06/26 04:23:54;;;;;;;;;;;20.30;99.90;;;;;;5000765;28;20355;-76
2022/06/26 04:26:20;;;;;;;;;;;20.30;99.90;;;;;;5003515;28;19906;-76
2022/06/26 04:28:45;;;;;;;;;;;20.40;99.90;;;;;;5001931;28;19948;-76
2022/06/26 04:31:11;;;;;;;;;;;20.50;99.90;;;;;;5004342;28;19905;-75
2022/06/26 04:33:36;;;;;;;;;;;20.50;99.90;;;;;;5002374;28;19913;-75
2022/06/26 04:36:02;;;;;;;;;;;20.50;99.90;;;;;;5004976;28;19906;-75
2022/06/26 04:38:27;;;;;;;;;;;20.50;99.90;;;;;;5004169;28;19905;-75
2022/06/26 04:40:53;;;;;;;;;;;20.60;99.90;;;;;;5010524;28;19905;-75
2022/06/26 04:43:19;;;;;;;;;;;20.60;99.90;;;;;;5010044;28;19897;-75
2022/06/26 04:45:44;;;;;;;;;;;20.60;99.90;;;;;;5017339;28;19996;-75
2022/06/26 04:48:10;;;;;;;;;;;20.80;99.90;;;;;;5011540;28;19940;-76
2022/06/26 04:50:35;;;;;;;;;;;20.90;99.90;;;;;;4997572;28;19964;-76
2022/06/26 04:53:01;;;;;;;;;;;20.90;99.90;;;;;;4996066;28;20358;-76
2022/06/26 04:55:26;;;;;;;;;;;20.90;99.90;;;;;;4996315;28;19905;-76
2022/06/26 04:57:52;;;;;;;;;;;21.00;99.90;;;;;;4998702;28;20344;-76
2022/06/26 05:00:17;;;;;;;;;;;21.20;99.90;;;;;;4997671;28;19905;-76
2022/06/26 05:02:43;;;;;;;;;;;21.20;99.90;;;;;;4996266;28;19905;-76
2022/06/26 05:05:08;;;;;;;;;;;21.30;99.90;;;;;;4996728;28;19929;-76
2022/06/26 05:07:34;;;;;;;;;;;21.40;99.90;;;;;;4996764;28;19916;-76
2022/06/26 05:10:00;;;;;;;;;;;21.60;99.90;;;;;;4996615;28;19906;-76
2022/06/26 05:12:26;;;;;;;;;;;21.60;99.90;;;;;;4996169;28;19906;-76
2022/06/26 05:14:52;;;;;;;;;;;21.60;99.90;;;;;;4995470;28;19906;-76
2022/06/26 05:17:17;;;;;;;;;;;21.70;99.90;;;;;;4995483;28;19906;-76
2022/06/26 05:19:43;;;;;;;;;;;21.70;99.90;;;;;;4997261;28;20402;-77
2022/06/26 05:22:08;;;;;;;;;;;21.70;99.90;;;;;;4994929;28;20283;-77
2022/06/26 05:24:34;;;;;;;;;;;21.70;99.90;;;;;;4996050;28;19945;-77
2022/06/26 05:26:59;;;;;;;;;;;21.70;99.90;;;;;;4996544;28;19913;-76
2022/06/26 05:29:25;;;;;;;;;;;21.80;99.90;;;;;;4996874;28;20007;-76
2022/06/26 05:31:51;;;;;;;;;;;21.80;99.90;;;;;;4997058;28;19956;-76
2022/06/26 05:34:16;;;;;;;;;;;21.90;99.90;;;;;;4996470;28;19905;-76
2022/06/26 05:36:42;;;;;;;;;;;22.00;99.90;;;;;;4996975;28;19937;-76
2022/06/26 05:39:08;;;;;;;;;;;22.20;99.90;;;;;;4997668;28;20013;-76
2022/06/26 05:41:33;;;;;;;;;;;22.20;99.90;;;;;;4997196;28;20006;-76
2022/06/26 05:43:59;;;;;;;;;;;22.30;99.90;;;;;;4998734;28;19976;-76
2022/06/26 05:46:24;;;;;;;;;;;22.30;99.90;;;;;;4998926;28;20074;-76
2022/06/26 05:48:50;;;;;;;;;;;22.40;99.90;;;;;;4998599;28;19909;-77
2022/06/26 05:51:15;;;;;;;;;;;22.50;99.90;;;;;;4999365;28;19913;-75
2022/06/26 05:53:41;;;;;;;;;;;22.40;99.90;;;;;;4996897;28;19914;-76
2022/06/26 05:56:06;;;;;;;;;;;22.30;99.90;;;;;;5000595;28;20391;-76
2022/06/26 05:58:32;;;;;;;;;;;22.40;99.90;;;;;;4997114;28;19910;-76
2022/06/26 06:00:58;;;;;;;;;;;22.40;99.90;;;;;;4997467;28;19912;-76
2022/06/26 06:03:23;;;;;;;;;;;22.30;99.90;;;;;;4999280;28;20355;-76
2022/06/26 06:05:49;;;;;;;;;;;22.40;99.90;;;;;;5000154;28;19988;-76
2022/06/26 06:08:14;;;;;;;;;;;22.50;99.90;;;;;;5002071;28;19960;-75
2022/06/26 06:10:40;;;;;;;;;;;22.60;99.90;;;;;;5001983;28;19913;-77
2022/06/26 06:13:05;;;;;;;;;;;22.70;99.90;;;;;;5000605;28;19964;-76
2022/06/26 06:15:31;;;;;;;;;;;22.80;99.90;;;;;;5001649;28;19906;-77
2022/06/26 06:17:57;;;;;;;;;;;22.90;99.90;;;;;;5000903;28;20354;-76
2022/06/26 06:20:25;;;;;;;;;;;23.00;99.90;;;;;;5001124;28;19944;-76
2022/06/26 06:22:59;;;;;;;;;;;23.10;99.90;;;;;;5003093;28;19913;-76
2022/06/26 06:25:25;;;;;;;;;;;23.20;99.90;;;;;;5001311;28;19910;-76
2022/06/26 06:27:50;;;;;;;;;;;23.30;99.90;;;;;;5001592;28;20021;-76
2022/06/26 06:30:16;;;;;;;;;;;23.40;99.90;;;;;;5001195;28;20371;-73
2022/06/26 06:32:42;;;;;;;;;;;23.50;99.90;;;;;;5000475;28;19906;-75
2022/06/26 06:35:08;;;;;;;;;;;23.60;99.90;;;;;;5000313;28;20264;-75
2022/06/26 06:37:34;;;;;;;;;;;23.60;99.90;;;;;;5002839;28;20057;-76
2022/06/26 06:40:00;;;;;;;;;;;23.60;99.90;;;;;;5003374;28;19986;-76
2022/06/26 06:42:25;;;;;;;;;;;23.70;99.90;;;;;;5001922;28;19917;-76
2022/06/26 06:44:51;;;;;;;;;;;23.70;99.90;;;;;;5003292;28;19909;-75
2022/06/26 06:47:16;;;;;;;;;;;23.90;99.90;;;;;;5001951;28;19906;-75
2022/06/26 06:49:42;;;;;;;;;;;23.90;99.90;;;;;;5002829;28;19993;-75
2022/06/26 06:52:11;;;;;;;;;;;23.90;99.90;;;;;;5003039;28;20442;-75
2022/06/26 06:54:37;;;;;;;;;;;23.90;99.90;;;;;;5001523;28;19906;-74
2022/06/26 06:57:03;;;;;;;;;;;23.80;99.90;;;;;;5000139;28;19994;-74
2022/06/26 06:59:28;;;;;;;;;;;23.70;99.90;;;;;;4997540;28;20394;-74
2022/06/26 07:01:54;;;;;;;;;;;23.40;99.90;;;;;;4998073;28;19913;-74
2022/06/26 07:04:19;;;;;;;;;;;23.30;99.90;;;;;;4997537;28;19906;-76
2022/06/26 07:06:45;;;;;;;;;;;23.10;99.90;;;;;;4998851;28;19916;-74
2022/06/26 07:09:10;;;;;;;;;;;23.10;99.90;;;;;;4999209;28;19917;-73
2022/06/26 07:11:36;;;;;;;;;;;23.00;99.90;;;;;;4997407;28;19906;-74
2022/06/26 07:14:02;;;;;;;;;;;22.90;99.90;;;;;;5002679;28;19912;-74
2022/06/26 07:16:28;;;;;;;;;;;22.90;99.90;;;;;;4998697;28;20367;-74
2022/06/26 07:18:53;;;;;;;;;;;23.00;99.90;;;;;;4999021;28;19905;-74
2022/06/26 07:21:19;;;;;;;;;;;22.90;99.90;;;;;;4997708;28;19913;-74
2022/06/26 07:23:45;;;;;;;;;;;22.80;99.90;;;;;;4999224;28;20016;-74
2022/06/26 07:26:10;;;;;;;;;;;22.90;99.90;;;;;;4997967;28;20386;-74
2022/06/26 07:28:36;;;;;;;;;;;22.90;99.90;;;;;;4996903;28;20242;-74
2022/06/26 07:31:01;;;;;;;;;;;22.90;99.90;;;;;;4996821;28;20382;-74
2022/06/26 07:36:11;;;;;;;;;;;22.90;99.90;;;;;;4999035;28;19997;-74
2022/06/26 07:38:36;;;;;;;;;;;23.10;99.90;;;;;;5000239;28;19934;-74
2022/06/26 07:41:02;;;;;;;;;;;23.10;99.90;;;;;;4998555;28;19960;-73
2022/06/26 07:43:27;;;;;;;;;;;23.00;99.90;;;;;;4998109;28;19996;-74
2022/06/26 07:45:53;;;;;;;;;;;23.00;99.90;;;;;;4996154;28;19905;-75
2022/06/26 07:48:19;;;;;;;;;;;22.90;99.90;;;;;;4997165;28;20012;-75
2022/06/26 07:50:45;;;;;;;;;;;23.00;99.90;;;;;;4997755;28;19910;-74
2022/06/26 07:53:10;;;;;;;;;;;23.10;99.90;;;;;;5030391;23;19921;-71
2022/06/26 07:55:36;;;;;;;;;;;23.30;99.90;;;;;;5016032;28;19905;-72
2022/06/26 07:58:01;;;;;;;;;;;23.20;99.90;;;;;;5014811;28;19905;-72
2022/06/26 08:00:27;;;;;;;;;;;23.30;99.90;;;;;;5016315;28;20278;-72
2022/06/26 08:02:53;;;;;;;;;;;23.50;99.90;;;;;;5016214;28;20512;-71
2022/06/26 08:05:19;;;;;;;;;;;23.60;99.90;;;;;;5016814;28;19991;-71
2022/06/26 08:07:44;;;;;;;;;;;23.60;99.90;;;;;;5017708;28;19963;-72
2022/06/26 08:10:10;;;;;;;;;;;23.60;99.90;;;;;;5022049;28;20354;-70
2022/06/26 08:12:35;;;;;;;;;;;23.70;99.90;;;;;;5021979;28;19905;-70
2022/06/26 08:15:01;;;;;;;;;;;23.80;99.90;;;;;;5019063;28;20381;-71
2022/06/26 08:17:26;;;;;;;;;;;23.90;99.90;;;;;;5016104;28;20004;-71
2022/06/26 08:19:52;;;;;;;;;;;23.90;99.90;;;;;;5015373;28;20001;-70
2022/06/26 08:22:18;;;;;;;;;;;23.90;99.90;;;;;;5015184;28;20382;-71
2022/06/26 08:24:44;;;;;;;;;;;23.90;99.90;;;;;;5015268;28;20043;-71
2022/06/26 08:27:10;;;;;;;;;;;24.10;99.90;;;;;;5016116;28;19905;-71
2022/06/26 08:29:36;;;;;;;;;;;24.20;99.90;;;;;;5015139;28;19932;-72
2022/06/26 08:32:02;;;;;;;;;;;24.50;99.90;;;;;;5016667;28;19909;-71
2022/06/26 08:34:28;;;;;;;;;;;24.60;99.90;;;;;;5016483;28;19928;-71
2022/06/26 08:36:54;;;;;;;;;;;24.50;99.90;;;;;;5018995;28;19909;-70
2022/06/26 08:39:20;;;;;;;;;;;24.40;99.90;;;;;;5019433;28;19906;-71
2022/06/26 08:41:46;;;;;;;;;;;24.60;99.90;;;;;;5020015;28;20286;-70
2022/06/26 08:44:12;;;;;;;;;;;24.80;99.90;;;;;;5018313;28;19905;-71
2022/06/26 08:46:38;;;;;;;;;;;25.20;99.90;;;;;;5019975;28;19948;-71
2022/06/26 08:49:07;;;;;;;;;;;25.30;99.90;;;;;;5015316;28;19998;-71
2022/06/26 08:51:33;;;;;;;;;;;25.40;99.90;;;;;;5007300;28;19917;-71
2022/06/26 08:54:00;;;;;;;;;;;25.50;99.90;;;;;;5000908;28;19913;-71
2022/06/26 08:56:25;;;;;;;;;;;25.40;99.90;;;;;;4996336;28;20390;-71
2022/06/26 08:58:51;;;;;;;;;;;25.50;99.90;;;;;;4998215;28;19906;-71
2022/06/26 09:01:16;;;;;;;;;;;25.50;99.90;;;;;;4999993;28;19941;-71
2022/06/26 09:03:42;;;;;;;;;;;25.50;99.90;;;;;;4999792;28;20016;-70
2022/06/26 09:06:07;;;;;;;;;;;25.00;99.90;;;;;;5006930;28;19910;-71
2022/06/26 09:08:42;;;;;;;;;;;24.90;99.90;;;;;;5005808;28;20418;-72
2022/06/26 09:11:07;;;;;;;;;;;24.90;99.90;;;;;;5000007;28;19955;-71
2022/06/26 09:13:37;;;;;;;;;;;25.00;99.90;;;;;;5005993;28;19909;-72
2022/06/26 09:16:03;;;;;;;;;;;25.20;99.90;;;;;;5017494;28;19916;-71
2022/06/26 09:18:32;;;;;;;;;;;25.20;99.90;;;;;;5025072;28;19905;-71
2022/06/26 09:20:58;;;;;;;;;;;25.20;99.90;;;;;;5033978;28;19909;-71
2022/06/26 09:23:23;;;;;;;;;;;25.50;99.90;;;;;;5034530;28;19909;-71
2022/06/26 09:25:49;;;;;;;;;;;25.70;99.90;;;;;;5015604;28;20367;-71
2022/06/26 09:28:15;;;;;;;;;;;25.60;99.90;;;;;;5013897;28;20294;-71
2022/06/26 09:31:00;;;;;;;;;;;25.60;99.90;;;;;;5013309;28;20331;-70
2022/06/26 09:33:30;;;;;;;;;;;25.70;99.90;;;;;;5019071;28;20034;-72
2022/06/26 09:35:56;;;;;;;;;;;25.80;99.90;;;;;;5023869;28;19951;-71
2022/06/26 09:38:23;;;;;;;;;;;26.00;99.90;;;;;;5023968;28;19940;-71
2022/06/26 09:40:50;;;;;;;;;;;26.10;99.90;;;;;;5022520;28;19921;-71
2022/06/26 09:43:24;;;;;;;;;;;26.10;99.90;;;;;;5022710;28;19905;-72
2022/06/26 09:45:51;;;;;;;;;;;26.10;99.90;;;;;;5022645;28;19964;-70
2022/06/26 09:48:17;;;;;;;;;;;26.40;99.90;;;;;;5017955;28;19999;-72
2022/06/26 09:50:43;;;;;;;;;;;26.50;99.90;;;;;;5017521;28;19913;-72
2022/06/26 09:53:09;;;;;;;;;;;26.60;99.90;;;;;;5020675;28;20267;-71
2022/06/26 09:55:34;;;;;;;;;;;26.20;99.90;;;;;;5031714;28;19912;-71
2022/06/26 09:58:00;;;;;;;;;;;26.00;99.90;;;;;;5016607;28;19905;-70
2022/06/26 10:00:26;;;;;;;;;;;26.10;99.90;;;;;;5015385;28;19905;-70
2022/06/26 10:08:21;;;;;;;;;;;25.90;99.90;;;;;;5017984;28;19916;-71
2022/06/26 10:10:47;;;;;;;;;;;25.90;99.90;;;;;;5019421;28;19968;-71
2022/06/26 10:13:13;;;;;;;;;;;25.80;99.90;;;;;;5018648;28;20306;-72
2022/06/26 10:15:49;;;;;;;;;;;25.70;99.90;;;;;;5017132;28;19905;-72
2022/06/26 10:18:41;;;;;;;;;;;25.70;99.90;;;;;;5033115;28;19983;-72
2022/06/26 10:21:09;;;;;;;;;;;25.70;99.90;;;;;;5019396;28;19905;-72
2022/06/26 10:23:36;;;;;;;;;;;25.80;99.90;;;;;;5032109;28;19905;-72
2022/06/26 10:26:12;;;;;;;;;;;25.50;99.90;;;;;;5026960;28;19912;-72
2022/06/26 10:28:54;;;;;;;;;;;25.40;99.90;;;;;;5026303;28;19917;-72
2022/06/26 10:31:19;;;;;;;;;;;25.60;99.90;;;;;;5024621;28;19916;-72
2022/06/26 10:33:48;;;;;;;;;;;25.70;99.90;;;;;;5027933;28;19905;-72
2022/06/26 10:36:24;;;;;;;;;;;25.70;99.90;;;;;;5023642;28;20274;-73
2022/06/26 10:38:51;;;;;;;;;;;25.70;99.90;;;;;;5025473;28;20354;-71
2022/06/26 10:44:02;;;;;;;;;;;25.70;99.90;;;;;;5019063;28;19960;-72
2022/06/26 10:46:38;;;;;;;;;;;25.70;99.90;;;;;;5023792;28;20011;-72
2022/06/26 10:49:09;;;;;;;;;;;25.70;99.90;;;;;;5025044;28;19913;-73
2022/06/26 10:51:38;;;;;;;;;;;25.60;99.90;;;;;;5024115;28;19913;-71
2022/06/26 10:54:03;;;;;;;;;;;25.50;99.90;;;;;;5023939;28;19956;-71
2022/06/26 10:56:29;;;;;;;;;;;25.50;99.90;;;;;;5011534;28;19959;-72
2022/06/26 10:59:00;;;;;;;;;;;25.70;99.90;;;;;;5018256;28;19905;-72
2022/06/26 11:01:26;;;;;;;;;;;25.80;99.90;;;;;;5017633;28;19905;-72
2022/06/26 11:03:53;;;;;;;;;;;26.10;99.90;;;;;;5010515;28;19910;-71
2022/06/26 11:06:19;;;;;;;;;;;26.30;99.90;;;;;;5002914;28;19929;-71
2022/06/26 11:08:51;;;;;;;;;;;26.50;99.90;;;;;;4996587;28;19910;-71
2022/06/26 11:11:20;;;;;;;;;;;26.70;99.90;;;;;;5001342;28;19921;-71
2022/06/26 11:13:53;;;;;;;;;;;26.80;99.90;;;;;;5020315;28;19909;-72
2022/06/26 11:16:42;;;;;;;;;;;26.90;99.90;;;;;;5023522;28;19932;-71
2022/06/26 11:19:08;;;;;;;;;;;26.70;99.90;;;;;;5028322;28;19909;-71
2022/06/26 11:21:34;;;;;;;;;;;26.60;99.90;;;;;;5015971;28;20343;-72
2022/06/26 11:24:00;;;;;;;;;;;26.60;99.90;;;;;;5014536;28;19968;-71
2022/06/26 11:26:26;;;;;;;;;;;26.60;99.90;;;;;;5010107;28;19910;-71
2022/06/26 11:28:55;;;;;;;;;;;26.60;99.90;;;;;;5009549;28;19940;-71
2022/06/26 11:31:23;;;;;;;;;;;26.70;99.90;;;;;;5002373;28;20388;-73
2022/06/26 11:33:49;;;;;;;;;;;26.70;99.90;;;;;;5016349;28;20042;-71
2022/06/26 11:36:15;;;;;;;;;;;26.60;99.90;;;;;;5009066;28;20439;-70
2022/06/26 11:38:52;;;;;;;;;;;26.50;99.90;;;;;;5014276;28;19905;-71
2022/06/26 11:41:18;;;;;;;;;;;26.50;99.90;;;;;;5025726;28;19909;-70
2022/06/26 11:43:44;;;;;;;;;;;26.40;99.90;;;;;;5032622;28;19909;-70
2022/06/26 11:46:10;;;;;;;;;;;26.30;99.90;;;;;;5035329;28;19912;-70
2022/06/26 11:48:36;;;;;;;;;;;26.40;99.90;;;;;;5035218;28;19909;-71
2022/06/26 11:51:01;;;;;;;;;;;26.40;99.90;;;;;;5034883;28;20370;-71
2022/06/26 11:53:28;;;;;;;;;;;26.40;99.90;;;;;;5026256;28;20294;-71
2022/06/26 11:56:01;;;;;;;;;;;26.30;99.90;;;;;;5023931;28;19910;-71
2022/06/26 11:58:28;;;;;;;;;;;26.10;99.90;;;;;;5024290;28;19905;-71
2022/06/26 12:01:04;;;;;;;;;;;26.10;99.90;;;;;;5024560;28;19948;-71
2022/06/26 12:03:30;;;;;;;;;;;26.10;99.90;;;;;;5015276;28;19905;-71
2022/06/26 12:05:55;;;;;;;;;;;26.20;99.90;;;;;;5023235;28;20297;-71
2022/06/26 12:08:21;;;;;;;;;;;26.10;99.90;;;;;;5035339;28;19909;-72
2022/06/26 12:10:51;;;;;;;;;;;26.10;99.90;;;;;;5020735;28;20317;-71
2022/06/26 12:13:26;;;;;;;;;;;26.30;99.90;;;;;;5035983;28;20358;-72
2022/06/26 12:15:52;;;;;;;;;;;26.10;99.90;;;;;;5028339;28;20359;-71
2022/06/26 12:18:17;;;;;;;;;;;26.10;99.90;;;;;;5037002;28;19972;-71
2022/06/26 12:20:43;;;;;;;;;;;26.00;99.90;;;;;;5020472;28;19910;-71
2022/06/26 12:23:09;;;;;;;;;;;25.90;99.90;;;;;;5036081;28;19979;-71
2022/06/26 12:25:36;;;;;;;;;;;25.80;99.90;;;;;;5025820;28;20316;-71
2022/06/26 12:28:02;;;;;;;;;;;25.80;99.90;;;;;;5031413;28;19960;-71
2022/06/26 12:30:29;;;;;;;;;;;26.10;99.90;;;;;;5035888;28;19906;-70
2022/06/26 12:32:58;;;;;;;;;;;26.20;99.90;;;;;;5020556;28;20393;-69
2022/06/26 12:35:24;;;;;;;;;;;26.10;99.90;;;;;;5022219;28;19917;-70
2022/06/26 12:37:50;;;;;;;;;;;26.30;99.90;;;;;;5031290;28;20007;-69
2022/06/26 12:40:15;;;;;;;;;;;26.50;99.90;;;;;;5027888;28;19963;-71
2022/06/26 12:42:41;;;;;;;;;;;26.50;99.90;;;;;;5022410;28;19912;-72
2022/06/26 12:45:07;;;;;;;;;;;26.40;99.90;;;;;;5029436;28;19906;-70
2022/06/26 12:47:32;;;;;;;;;;;26.50;99.90;;;;;;5019647;28;19956;-70
2022/06/26 12:49:58;;;;;;;;;;;26.70;99.90;;;;;;5039405;28;19927;-71
2022/06/26 12:52:24;;;;;;;;;;;26.70;99.90;;;;;;5028339;28;19917;-70
2022/06/26 12:54:50;;;;;;;;;;;26.60;99.90;;;;;;5051790;28;20004;-71
2022/06/26 12:57:15;;;;;;;;;;;26.40;99.90;;;;;;5037590;28;20296;-70
2022/06/26 12:59:41;;;;;;;;;;;26.50;99.90;;;;;;5035026;28;19905;-71
2022/06/26 13:02:07;;;;;;;;;;;26.60;99.90;;;;;;5034214;28;19905;-70
2022/06/26 13:04:32;;;;;;;;;;;26.60;99.90;;;;;;5034697;28;19909;-70
2022/06/26 13:06:58;;;;;;;;;;;26.60;99.90;;;;;;5034758;28;20366;-70
2022/06/26 13:09:23;;;;;;;;;;;26.70;99.90;;;;;;5034425;28;19909;-72
2022/06/26 13:11:49;;;;;;;;;;;26.60;99.90;;;;;;5017103;28;19992;-71
2022/06/26 13:14:14;;;;;;;;;;;26.50;99.90;;;;;;4999907;28;19910;-70
2022/06/26 13:16:40;;;;;;;;;;;26.50;99.90;;;;;;5012735;28;19912;-71
2022/06/26 13:19:07;;;;;;;;;;;26.40;99.90;;;;;;5014421;28;19906;-72
2022/06/26 13:21:32;;;;;;;;;;;26.20;99.90;;;;;;5014771;28;20359;-72
2022/06/26 13:23:58;;;;;;;;;;;26.10;99.90;;;;;;5014103;28;19960;-71
2022/06/26 13:26:24;;;;;;;;;;;26.00;99.90;;;;;;5014152;28;19928;-72
2022/06/26 13:28:49;;;;;;;;;;;26.00;99.90;;;;;;5014641;28;19948;-72
2022/06/26 13:31:15;;;;;;;;;;;26.10;99.90;;;;;;5013202;28;20286;-72
2022/06/26 13:33:40;;;;;;;;;;;26.20;99.90;;;;;;5013224;28;19913;-73
2022/06/26 13:36:06;;;;;;;;;;;26.30;99.90;;;;;;5012778;28;19916;-71
2022/06/26 13:38:33;;;;;;;;;;;26.40;99.50;;;;;;5008021;28;19914;-72
2022/06/26 13:40:59;;;;;;;;;;;26.40;99.90;;;;;;5007839;28;20347;-72
2022/06/26 13:43:24;;;;;;;;;;;26.40;99.90;;;;;;5014012;28;19913;-72
2022/06/26 13:45:50;;;;;;;;;;;26.50;99.90;;;;;;5014231;28;19906;-73
2022/06/26 13:48:15;;;;;;;;;;;26.60;99.90;;;;;;5009265;28;19922;-70
2022/06/26 13:50:41;;;;;;;;;;;26.70;99.90;;;;;;5012909;28;19906;-69
2022/06/26 13:53:06;;;;;;;;;;;26.80;99.90;;;;;;5012092;28;19939;-72
2022/06/26 13:55:32;;;;;;;;;;;26.90;99.90;;;;;;5012376;28;19913;-71
2022/06/26 13:57:57;;;;;;;;;;;26.90;99.90;;;;;;5011743;28;20013;-72
2022/06/26 14:00:23;;;;;;;;;;;26.90;99.90;;;;;;5012338;28;19913;-70
2022/06/26 14:02:52;;;;;;;;;;;27.00;99.90;;;;;;5013170;28;19916;-71
2022/06/26 14:05:17;;;;;;;;;;;26.90;99.90;;;;;;5012882;28;19913;-71
2022/06/26 14:07:43;;;;;;;;;;;26.80;99.90;;;;;;5012166;28;19983;-71
2022/06/26 14:10:09;;;;;;;;;;;26.70;99.90;;;;;;5012561;28;19913;-71
2022/06/26 14:12:34;;;;;;;;;;;26.60;99.90;;;;;;5011453;28;20000;-70
2022/06/26 14:15:00;;;;;;;;;;;26.40;99.90;;;;;;5011421;28;19952;-71
2022/06/26 14:17:25;;;;;;;;;;;26.40;99.90;;;;;;5013782;28;19949;-71
2022/06/26 14:19:51;;;;;;;;;;;26.30;99.90;;;;;;5015589;28;19916;-71
2022/06/26 14:27:46;;;;;;;;;;;26.60;99.90;;;;;;5014606;28;19972;-70
2022/06/26 14:30:12;;;;;;;;;;;26.70;98.90;;;;;;5015185;28;19909;-72
2022/06/26 14:32:37;;;;;;;;;;;26.80;98.10;;;;;;5014000;28;20000;-71